Chase, Canada
Current Conditions -  °F | °C
As of 6:00 PM on Friday 24 Oct 2014 (Local Time) from CYKA Reporting Station
Broken Clouds Broken Clouds  
Wind Chill: 11°   Ceiling: 24000
Heat Index: 11°   Visibility: 40mi
Dew Point:   Wind: 10mph
Humidity: 50%   Direction: 90°E
Pressure: 30.02"   Gusts: NA
Location:  50.82°N, 119.68°W
Report Text: CYKA 250100Z 09009KT 40SM FEW080 BKN240 11/01 A3002 RMK AC1CI6 SLP177
Loading
Personal Weather Stations






























Interactive Weather Map
Tropical Storm Tracking
New forecast layout! Learn more

10-Day Weather Forecast

Advertisements
Track Severe Weather on mobile